sensor_id;sensor_type;location;lat;lon;timestamp;P1;durP1;ratioP1;P2;durP2;ratioP2
2748;SDS011;1382;52.142;11.618;2023-04-25T00:01:11;7.43;;;3.53;;
2748;SDS011;1382;52.142;11.618;2023-04-25T00:03:38;5.87;;;3.50;;
2748;SDS011;1382;52.142;11.618;2023-04-25T00:06:06;4.20;;;3.23;;
2748;SDS011;1382;52.142;11.618;2023-04-25T00:08:32;5.87;;;3.60;;
2748;SDS011;1382;52.142;11.618;2023-04-25T00:11:01;4.87;;;3.40;;
2748;SDS011;1382;52.142;11.618;2023-04-25T00:13:27;4.30;;;3.27;;
2748;SDS011;1382;52.142;11.618;2023-04-25T00:15:54;9.80;;;4.37;;
2748;SDS011;1382;52.142;11.618;2023-04-25T00:18:21;5.83;;;3.50;;
2748;SDS011;1382;52.142;11.618;2023-04-25T00:20:48;6.53;;;3.83;;
2748;SDS011;1382;52.142;11.618;2023-04-25T00:23:15;6.10;;;3.70;;
2748;SDS011;1382;52.142;11.618;2023-04-25T00:25:42;5.67;;;3.97;;
2748;SDS011;1382;52.142;11.618;2023-04-25T00:28:10;5.80;;;4.40;;
2748;SDS011;1382;52.142;11.618;2023-04-25T00:30:36;7.20;;;4.70;;
2748;SDS011;1382;52.142;11.618;2023-04-25T00:33:03;8.37;;;4.43;;
2748;SDS011;1382;52.142;11.618;2023-04-25T00:35:30;8.00;;;4.70;;
2748;SDS011;1382;52.142;11.618;2023-04-25T00:37:57;8.23;;;4.20;;
2748;SDS011;1382;52.142;11.618;2023-04-25T00:40:24;7.97;;;4.60;;
2748;SDS011;1382;52.142;11.618;2023-04-25T00:42:51;14.13;;;4.30;;
2748;SDS011;1382;52.142;11.618;2023-04-25T00:45:19;9.70;;;5.13;;
2748;SDS011;1382;52.142;11.618;2023-04-25T00:47:46;10.47;;;4.17;;
2748;SDS011;1382;52.142;11.618;2023-04-25T00:50:13;7.40;;;4.27;;
2748;SDS011;1382;52.142;11.618;2023-04-25T00:52:40;8.20;;;5.07;;
2748;SDS011;1382;52.142;11.618;2023-04-25T00:55:10;11.63;;;4.10;;
2748;SDS011;1382;52.142;11.618;2023-04-25T00:57:38;7.30;;;4.60;;
2748;SDS011;1382;52.142;11.618;2023-04-25T01:00:06;9.50;;;4.90;;
2748;SDS011;1382;52.142;11.618;2023-04-25T01:02:35;11.90;;;4.87;;
2748;SDS011;1382;52.142;11.618;2023-04-25T01:05:03;4.80;;;4.07;;
2748;SDS011;1382;52.142;11.618;2023-04-25T01:07:31;9.27;;;5.20;;
2748;SDS011;1382;52.142;11.618;2023-04-25T01:09:57;11.83;;;4.67;;
2748;SDS011;1382;52.142;11.618;2023-04-25T01:12:24;10.40;;;4.50;;
2748;SDS011;1382;52.142;11.618;2023-04-25T01:14:51;9.67;;;4.20;;
2748;SDS011;1382;52.142;11.618;2023-04-25T01:17:18;7.60;;;4.17;;
2748;SDS011;1382;52.142;11.618;2023-04-25T01:19:46;8.73;;;5.00;;
2748;SDS011;1382;52.142;11.618;2023-04-25T01:22:14;11.57;;;4.60;;
2748;SDS011;1382;52.142;11.618;2023-04-25T01:24:41;10.53;;;5.10;;
2748;SDS011;1382;52.142;11.618;2023-04-25T01:27:08;9.03;;;5.13;;
2748;SDS011;1382;52.142;11.618;2023-04-25T01:29:36;12.60;;;5.37;;
2748;SDS011;1382;52.142;11.618;2023-04-25T01:32:03;59.37;;;20.97;;
2748;SDS011;1382;52.142;11.618;2023-04-25T01:34:31;92.17;;;35.87;;
2748;SDS011;1382;52.142;11.618;2023-04-25T01:36:59;33.47;;;15.23;;
2748;SDS011;1382;52.142;11.618;2023-04-25T01:39:27;26.10;;;8.83;;
2748;SDS011;1382;52.142;11.618;2023-04-25T01:41:54;85.17;;;37.27;;
2748;SDS011;1382;52.142;11.618;2023-04-25T01:44:22;80.00;;;34.73;;
2748;SDS011;1382;52.142;11.618;2023-04-25T01:46:49;300.20;;;126.70;;
2748;SDS011;1382;52.142;11.618;2023-04-25T01:49:16;489.80;;;220.40;;
2748;SDS011;1382;52.142;11.618;2023-04-25T01:51:43;385.50;;;189.47;;
2748;SDS011;1382;52.142;11.618;2023-04-25T01:54:10;258.73;;;123.73;;
2748;SDS011;1382;52.142;11.618;2023-04-25T01:56:38;94.97;;;41.90;;
2748;SDS011;1382;52.142;11.618;2023-04-25T01:59:05;163.73;;;70.30;;
2748;SDS011;1382;52.142;11.618;2023-04-25T02:01:32;99.70;;;67.83;;
2748;SDS011;1382;52.142;11.618;2023-04-25T02:03:59;63.73;;;50.10;;
2748;SDS011;1382;52.142;11.618;2023-04-25T02:06:26;69.40;;;48.23;;
2748;SDS011;1382;52.142;11.618;2023-04-25T02:08:53;75.60;;;53.43;;
2748;SDS011;1382;52.142;11.618;2023-04-25T02:11:19;126.13;;;112.87;;
2748;SDS011;1382;52.142;11.618;2023-04-25T02:13:47;62.07;;;42.40;;
2748;SDS011;1382;52.142;11.618;2023-04-25T02:16:14;145.13;;;83.70;;
2748;SDS011;1382;52.142;11.618;2023-04-25T02:18:41;89.00;;;47.00;;
2748;SDS011;1382;52.142;11.618;2023-04-25T02:21:08;104.30;;;51.50;;
2748;SDS011;1382;52.142;11.618;2023-04-25T02:23:35;102.47;;;49.80;;
2748;SDS011;1382;52.142;11.618;2023-04-25T02:26:01;110.93;;;54.07;;
2748;SDS011;1382;52.142;11.618;2023-04-25T02:28:28;42.50;;;16.73;;
2748;SDS011;1382;52.142;11.618;2023-04-25T02:30:56;24.60;;;9.40;;
2748;SDS011;1382;52.142;11.618;2023-04-25T02:33:23;13.43;;;5.13;;
2748;SDS011;1382;52.142;11.618;2023-04-25T02:35:50;10.30;;;6.10;;
2748;SDS011;1382;52.142;11.618;2023-04-25T02:38:16;13.30;;;6.40;;
2748;SDS011;1382;52.142;11.618;2023-04-25T02:40:43;17.93;;;5.57;;
2748;SDS011;1382;52.142;11.618;2023-04-25T02:43:10;13.80;;;5.73;;
2748;SDS011;1382;52.142;11.618;2023-04-25T02:45:36;13.23;;;4.80;;
2748;SDS011;1382;52.142;11.618;2023-04-25T02:48:05;8.07;;;3.93;;
2748;SDS011;1382;52.142;11.618;2023-04-25T02:50:32;5.70;;;3.70;;
2748;SDS011;1382;52.142;11.618;2023-04-25T02:52:58;11.13;;;4.83;;
2748;SDS011;1382;52.142;11.618;2023-04-25T02:55:25;10.83;;;4.60;;
2748;SDS011;1382;52.142;11.618;2023-04-25T02:57:53;9.53;;;5.50;;
2748;SDS011;1382;52.142;11.618;2023-04-25T03:00:20;8.63;;;5.20;;
2748;SDS011;1382;52.142;11.618;2023-04-25T03:02:47;9.83;;;4.97;;
2748;SDS011;1382;52.142;11.618;2023-04-25T03:05:15;8.43;;;4.63;;
2748;SDS011;1382;52.142;11.618;2023-04-25T03:07:42;7.43;;;4.47;;
2748;SDS011;1382;52.142;11.618;2023-04-25T03:10:09;8.10;;;4.53;;
2748;SDS011;1382;52.142;11.618;2023-04-25T03:12:36;10.80;;;5.80;;
2748;SDS011;1382;52.142;11.618;2023-04-25T03:15:03;21.70;;;6.23;;
2748;SDS011;1382;52.142;11.618;2023-04-25T03:17:31;8.67;;;4.20;;
2748;SDS011;1382;52.142;11.618;2023-04-25T03:19:57;11.93;;;4.60;;
2748;SDS011;1382;52.142;11.618;2023-04-25T03:22:25;9.70;;;5.10;;
2748;SDS011;1382;52.142;11.618;2023-04-25T03:24:52;9.57;;;5.63;;
2748;SDS011;1382;52.142;11.618;2023-04-25T03:27:19;9.70;;;4.90;;
2748;SDS011;1382;52.142;11.618;2023-04-25T03:29:45;8.30;;;5.07;;
2748;SDS011;1382;52.142;11.618;2023-04-25T03:32:12;13.77;;;5.50;;
2748;SDS011;1382;52.142;11.618;2023-04-25T03:34:39;15.60;;;5.70;;
2748;SDS011;1382;52.142;11.618;2023-04-25T03:37:06;12.70;;;5.80;;
2748;SDS011;1382;52.142;11.618;2023-04-25T03:39:34;14.70;;;6.23;;
2748;SDS011;1382;52.142;11.618;2023-04-25T03:42:00;13.90;;;5.17;;
2748;SDS011;1382;52.142;11.618;2023-04-25T03:44:27;11.10;;;5.27;;
2748;SDS011;1382;52.142;11.618;2023-04-25T03:46:54;14.13;;;5.63;;
2748;SDS011;1382;52.142;11.618;2023-04-25T03:49:20;12.27;;;5.30;;
2748;SDS011;1382;52.142;11.618;2023-04-25T03:51:47;7.63;;;4.73;;
2748;SDS011;1382;52.142;11.618;2023-04-25T03:54:14;12.20;;;4.73;;
2748;SDS011;1382;52.142;11.618;2023-04-25T03:56:42;11.60;;;5.67;;
2748;SDS011;1382;52.142;11.618;2023-04-25T03:59:09;11.80;;;5.00;;
2748;SDS011;1382;52.142;11.618;2023-04-25T04:01:35;14.37;;;6.77;;
2748;SDS011;1382;52.142;11.618;2023-04-25T04:04:02;11.60;;;5.67;;
2748;SDS011;1382;52.142;11.618;2023-04-25T04:06:29;10.70;;;5.13;;
2748;SDS011;1382;52.142;11.618;2023-04-25T04:08:56;11.53;;;5.10;;
2748;SDS011;1382;52.142;11.618;2023-04-25T04:11:23;9.60;;;5.60;;
2748;SDS011;1382;52.142;11.618;2023-04-25T04:13:51;7.67;;;4.87;;
2748;SDS011;1382;52.142;11.618;2023-04-25T04:16:18;9.33;;;5.07;;
2748;SDS011;1382;52.142;11.618;2023-04-25T04:18:45;10.53;;;5.70;;
2748;SDS011;1382;52.142;11.618;2023-04-25T04:21:12;8.90;;;5.27;;
2748;SDS011;1382;52.142;11.618;2023-04-25T04:23:39;10.23;;;5.70;;
2748;SDS011;1382;52.142;11.618;2023-04-25T04:26:05;10.13;;;5.87;;
2748;SDS011;1382;52.142;11.618;2023-04-25T04:28:32;9.20;;;6.03;;
2748;SDS011;1382;52.142;11.618;2023-04-25T04:31:00;9.20;;;5.77;;
2748;SDS011;1382;52.142;11.618;2023-04-25T04:33:27;14.83;;;6.33;;
2748;SDS011;1382;52.142;11.618;2023-04-25T04:35:54;11.80;;;5.40;;
2748;SDS011;1382;52.142;11.618;2023-04-25T04:38:20;15.83;;;6.73;;
2748;SDS011;1382;52.142;11.618;2023-04-25T04:40:47;16.77;;;6.90;;
2748;SDS011;1382;52.142;11.618;2023-04-25T04:43:14;16.83;;;6.87;;
2748;SDS011;1382;52.142;11.618;2023-04-25T04:45:41;11.10;;;5.53;;
2748;SDS011;1382;52.142;11.618;2023-04-25T04:48:09;10.80;;;6.57;;
2748;SDS011;1382;52.142;11.618;2023-04-25T04:50:35;14.50;;;6.37;;
2748;SDS011;1382;52.142;11.618;2023-04-25T04:53:03;10.07;;;6.20;;
2748;SDS011;1382;52.142;11.618;2023-04-25T04:55:30;14.90;;;6.50;;
2748;SDS011;1382;52.142;11.618;2023-04-25T04:57:57;10.23;;;6.93;;
2748;SDS011;1382;52.142;11.618;2023-04-25T05:00:24;13.73;;;7.63;;
2748;SDS011;1382;52.142;11.618;2023-04-25T05:02:53;11.50;;;7.50;;
2748;SDS011;1382;52.142;11.618;2023-04-25T05:05:21;15.67;;;7.97;;
2748;SDS011;1382;52.142;11.618;2023-04-25T05:07:48;10.93;;;7.33;;
2748;SDS011;1382;52.142;11.618;2023-04-25T05:10:15;17.17;;;9.37;;
2748;SDS011;1382;52.142;11.618;2023-04-25T05:12:42;18.07;;;9.47;;
2748;SDS011;1382;52.142;11.618;2023-04-25T05:15:09;14.63;;;8.20;;
2748;SDS011;1382;52.142;11.618;2023-04-25T05:17:36;14.30;;;9.20;;
2748;SDS011;1382;52.142;11.618;2023-04-25T05:20:03;12.43;;;7.97;;
2748;SDS011;1382;52.142;11.618;2023-04-25T05:22:32;15.50;;;7.60;;
2748;SDS011;1382;52.142;11.618;2023-04-25T05:24:59;15.97;;;8.13;;
2748;SDS011;1382;52.142;11.618;2023-04-25T05:27:25;13.50;;;8.73;;
2748;SDS011;1382;52.142;11.618;2023-04-25T05:29:52;19.50;;;9.87;;
2748;SDS011;1382;52.142;11.618;2023-04-25T05:32:19;11.10;;;7.97;;
2748;SDS011;1382;52.142;11.618;2023-04-25T05:34:46;12.67;;;7.97;;
2748;SDS011;1382;52.142;11.618;2023-04-25T05:37:13;15.40;;;8.10;;
2748;SDS011;1382;52.142;11.618;2023-04-25T05:39:41;15.13;;;7.80;;
2748;SDS011;1382;52.142;11.618;2023-04-25T05:42:07;19.53;;;9.70;;
2748;SDS011;1382;52.142;11.618;2023-04-25T05:44:34;12.67;;;7.80;;
2748;SDS011;1382;52.142;11.618;2023-04-25T05:47:01;8.80;;;6.80;;
2748;SDS011;1382;52.142;11.618;2023-04-25T05:49:27;10.23;;;5.30;;
2748;SDS011;1382;52.142;11.618;2023-04-25T05:51:54;8.67;;;5.80;;
2748;SDS011;1382;52.142;11.618;2023-04-25T05:54:21;8.63;;;5.03;;
2748;SDS011;1382;52.142;11.618;2023-04-25T05:56:49;9.93;;;5.30;;
2748;SDS011;1382;52.142;11.618;2023-04-25T05:59:15;4.93;;;3.70;;
2748;SDS011;1382;52.142;11.618;2023-04-25T06:01:42;11.73;;;4.80;;
2748;SDS011;1382;52.142;11.618;2023-04-25T06:04:09;10.90;;;4.20;;
2748;SDS011;1382;52.142;11.618;2023-04-25T06:06:36;10.37;;;4.10;;
2748;SDS011;1382;52.142;11.618;2023-04-25T06:09:03;10.83;;;4.33;;
2748;SDS011;1382;52.142;11.618;2023-04-25T06:11:33;10.03;;;3.03;;
2748;SDS011;1382;52.142;11.618;2023-04-25T06:14:03;16.43;;;3.20;;
2748;SDS011;1382;52.142;11.618;2023-04-25T06:16:31;9.10;;;3.63;;
2748;SDS011;1382;52.142;11.618;2023-04-25T06:18:58;16.10;;;4.23;;
2748;SDS011;1382;52.142;11.618;2023-04-25T06:21:25;15.20;;;4.30;;
2748;SDS011;1382;52.142;11.618;2023-04-25T06:23:52;16.93;;;4.33;;
2748;SDS011;1382;52.142;11.618;2023-04-25T06:26:19;12.90;;;3.63;;
2748;SDS011;1382;52.142;11.618;2023-04-25T06:28:45;9.20;;;4.07;;
2748;SDS011;1382;52.142;11.618;2023-04-25T06:31:13;9.50;;;4.67;;
2748;SDS011;1382;52.142;11.618;2023-04-25T06:33:40;22.00;;;5.23;;
2748;SDS011;1382;52.142;11.618;2023-04-25T06:36:07;18.47;;;5.07;;
2748;SDS011;1382;52.142;11.618;2023-04-25T06:38:34;16.57;;;5.20;;
2748;SDS011;1382;52.142;11.618;2023-04-25T06:41:00;21.30;;;5.57;;
2748;SDS011;1382;52.142;11.618;2023-04-25T06:43:27;20.40;;;5.20;;
2748;SDS011;1382;52.142;11.618;2023-04-25T06:45:54;27.80;;;4.50;;
2748;SDS011;1382;52.142;11.618;2023-04-25T06:48:22;16.33;;;4.43;;
2748;SDS011;1382;52.142;11.618;2023-04-25T06:50:48;15.67;;;4.20;;
2748;SDS011;1382;52.142;11.618;2023-04-25T06:53:15;10.60;;;5.30;;
2748;SDS011;1382;52.142;11.618;2023-04-25T06:55:42;17.17;;;4.47;;
2748;SDS011;1382;52.142;11.618;2023-04-25T06:58:08;12.03;;;4.20;;
2748;SDS011;1382;52.142;11.618;2023-04-25T07:00:35;16.43;;;5.03;;
2748;SDS011;1382;52.142;11.618;2023-04-25T07:03:02;14.23;;;4.53;;
2748;SDS011;1382;52.142;11.618;2023-04-25T07:05:30;20.57;;;4.83;;
2748;SDS011;1382;52.142;11.618;2023-04-25T07:07:58;14.57;;;4.77;;
2748;SDS011;1382;52.142;11.618;2023-04-25T07:10:24;12.30;;;4.50;;
2748;SDS011;1382;52.142;11.618;2023-04-25T07:12:51;13.40;;;4.67;;
2748;SDS011;1382;52.142;11.618;2023-04-25T07:15:18;25.93;;;5.80;;
2748;SDS011;1382;52.142;11.618;2023-04-25T07:17:45;18.50;;;4.60;;
2748;SDS011;1382;52.142;11.618;2023-04-25T07:20:12;16.37;;;4.37;;
2748;SDS011;1382;52.142;11.618;2023-04-25T07:22:40;11.97;;;3.53;;
2748;SDS011;1382;52.142;11.618;2023-04-25T07:25:07;21.60;;;4.40;;
2748;SDS011;1382;52.142;11.618;2023-04-25T07:27:34;19.37;;;5.23;;
2748;SDS011;1382;52.142;11.618;2023-04-25T07:30:01;16.97;;;3.90;;
2748;SDS011;1382;52.142;11.618;2023-04-25T07:32:28;20.60;;;5.30;;
2748;SDS011;1382;52.142;11.618;2023-04-25T07:34:55;25.27;;;6.37;;
2748;SDS011;1382;52.142;11.618;2023-04-25T07:37:22;16.27;;;4.80;;
2748;SDS011;1382;52.142;11.618;2023-04-25T07:39:50;16.63;;;4.20;;
2748;SDS011;1382;52.142;11.618;2023-04-25T07:42:16;17.03;;;4.40;;
2748;SDS011;1382;52.142;11.618;2023-04-25T07:44:43;14.80;;;3.97;;
2748;SDS011;1382;52.142;11.618;2023-04-25T07:47:10;10.87;;;3.93;;
2748;SDS011;1382;52.142;11.618;2023-04-25T07:49:37;17.17;;;5.10;;
2748;SDS011;1382;52.142;11.618;2023-04-25T07:52:04;15.73;;;3.80;;
2748;SDS011;1382;52.142;11.618;2023-04-25T07:54:31;12.80;;;4.33;;
2748;SDS011;1382;52.142;11.618;2023-04-25T07:57:00;11.90;;;3.40;;
2748;SDS011;1382;52.142;11.618;2023-04-25T07:59:26;19.77;;;4.50;;
2748;SDS011;1382;52.142;11.618;2023-04-25T08:01:55;16.57;;;3.90;;
2748;SDS011;1382;52.142;11.618;2023-04-25T08:04:22;11.67;;;3.73;;
2748;SDS011;1382;52.142;11.618;2023-04-25T08:06:49;13.80;;;2.63;;
2748;SDS011;1382;52.142;11.618;2023-04-25T08:09:16;14.10;;;4.33;;
2748;SDS011;1382;52.142;11.618;2023-04-25T08:11:42;12.90;;;3.50;;
2748;SDS011;1382;52.142;11.618;2023-04-25T08:14:10;12.23;;;4.07;;
2748;SDS011;1382;52.142;11.618;2023-04-25T08:16:38;11.40;;;3.57;;
2748;SDS011;1382;52.142;11.618;2023-04-25T08:19:04;9.60;;;3.50;;
2748;SDS011;1382;52.142;11.618;2023-04-25T08:21:31;12.70;;;3.80;;
2748;SDS011;1382;52.142;11.618;2023-04-25T08:23:58;13.33;;;4.33;;
2748;SDS011;1382;52.142;11.618;2023-04-25T08:26:25;15.43;;;4.50;;
2748;SDS011;1382;52.142;11.618;2023-04-25T08:28:52;13.77;;;3.00;;
2748;SDS011;1382;52.142;11.618;2023-04-25T08:31:20;14.80;;;3.90;;
2748;SDS011;1382;52.142;11.618;2023-04-25T08:33:47;13.17;;;4.37;;
2748;SDS011;1382;52.142;11.618;2023-04-25T08:36:13;10.40;;;2.93;;
2748;SDS011;1382;52.142;11.618;2023-04-25T08:38:49;14.03;;;4.40;;
2748;SDS011;1382;52.142;11.618;2023-04-25T08:41:20;9.73;;;3.63;;
2748;SDS011;1382;52.142;11.618;2023-04-25T08:43:47;13.80;;;3.27;;
2748;SDS011;1382;52.142;11.618;2023-04-25T08:46:16;9.50;;;3.37;;
2748;SDS011;1382;52.142;11.618;2023-04-25T08:48:45;11.83;;;3.10;;
2748;SDS011;1382;52.142;11.618;2023-04-25T08:51:15;11.13;;;4.00;;
2748;SDS011;1382;52.142;11.618;2023-04-25T08:53:48;10.90;;;3.90;;
2748;SDS011;1382;52.142;11.618;2023-04-25T08:56:22;10.30;;;3.73;;
2748;SDS011;1382;52.142;11.618;2023-04-25T08:58:50;10.57;;;2.93;;
2748;SDS011;1382;52.142;11.618;2023-04-25T09:01:18;12.00;;;3.70;;
2748;SDS011;1382;52.142;11.618;2023-04-25T09:03:46;12.07;;;3.23;;
2748;SDS011;1382;52.142;11.618;2023-04-25T09:06:14;13.80;;;4.47;;
2748;SDS011;1382;52.142;11.618;2023-04-25T09:08:42;12.10;;;3.57;;
2748;SDS011;1382;52.142;11.618;2023-04-25T09:11:09;11.07;;;4.00;;
2748;SDS011;1382;52.142;11.618;2023-04-25T09:13:36;14.53;;;3.40;;
2748;SDS011;1382;52.142;11.618;2023-04-25T09:16:02;10.13;;;3.17;;
2748;SDS011;1382;52.142;11.618;2023-04-25T09:18:30;11.20;;;3.70;;
2748;SDS011;1382;52.142;11.618;2023-04-25T09:21:04;13.00;;;3.10;;
2748;SDS011;1382;52.142;11.618;2023-04-25T09:23:40;8.20;;;3.50;;
2748;SDS011;1382;52.142;11.618;2023-04-25T09:26:08;8.53;;;3.30;;
2748;SDS011;1382;52.142;11.618;2023-04-25T09:28:35;6.60;;;2.30;;
2748;SDS011;1382;52.142;11.618;2023-04-25T09:31:01;7.47;;;2.80;;
2748;SDS011;1382;52.142;11.618;2023-04-25T09:33:29;13.10;;;3.47;;
2748;SDS011;1382;52.142;11.618;2023-04-25T09:36:04;10.30;;;2.63;;
2748;SDS011;1382;52.142;11.618;2023-04-25T09:38:32;12.50;;;3.57;;
2748;SDS011;1382;52.142;11.618;2023-04-25T09:41:05;14.77;;;4.20;;
2748;SDS011;1382;52.142;11.618;2023-04-25T09:43:32;5.60;;;2.37;;
2748;SDS011;1382;52.142;11.618;2023-04-25T09:45:59;11.70;;;2.90;;
2748;SDS011;1382;52.142;11.618;2023-04-25T09:48:26;18.83;;;3.03;;
2748;SDS011;1382;52.142;11.618;2023-04-25T09:51:04;9.10;;;2.80;;
2748;SDS011;1382;52.142;11.618;2023-04-25T09:53:32;11.10;;;3.87;;
2748;SDS011;1382;52.142;11.618;2023-04-25T09:56:00;8.93;;;3.27;;
2748;SDS011;1382;52.142;11.618;2023-04-25T09:58:29;9.60;;;2.77;;
2748;SDS011;1382;52.142;11.618;2023-04-25T10:00:59;7.90;;;2.77;;
2748;SDS011;1382;52.142;11.618;2023-04-25T10:03:26;10.50;;;2.80;;
2748;SDS011;1382;52.142;11.618;2023-04-25T10:05:56;11.40;;;2.90;;
2748;SDS011;1382;52.142;11.618;2023-04-25T10:08:27;7.57;;;3.17;;
2748;SDS011;1382;52.142;11.618;2023-04-25T10:10:58;11.07;;;3.17;;
2748;SDS011;1382;52.142;11.618;2023-04-25T10:13:26;9.60;;;2.50;;
2748;SDS011;1382;52.142;11.618;2023-04-25T10:15:54;13.17;;;3.10;;
2748;SDS011;1382;52.142;11.618;2023-04-25T10:18:22;7.57;;;3.07;;
2748;SDS011;1382;52.142;11.618;2023-04-25T10:20:49;15.47;;;3.77;;
2748;SDS011;1382;52.142;11.618;2023-04-25T10:23:19;11.43;;;3.60;;
2748;SDS011;1382;52.142;11.618;2023-04-25T10:25:48;12.07;;;2.70;;
2748;SDS011;1382;52.142;11.618;2023-04-25T10:28:15;7.83;;;3.20;;
2748;SDS011;1382;52.142;11.618;2023-04-25T10:30:56;7.83;;;2.23;;
2748;SDS011;1382;52.142;11.618;2023-04-25T10:33:29;12.60;;;2.70;;
2748;SDS011;1382;52.142;11.618;2023-04-25T10:35:58;9.80;;;2.80;;
2748;SDS011;1382;52.142;11.618;2023-04-25T10:38:25;5.03;;;2.40;;
2748;SDS011;1382;52.142;11.618;2023-04-25T10:43:37;7.43;;;2.80;;
2748;SDS011;1382;52.142;11.618;2023-04-25T10:46:17;11.33;;;3.00;;
2748;SDS011;1382;52.142;11.618;2023-04-25T10:48:48;7.10;;;2.40;;
2748;SDS011;1382;52.142;11.618;2023-04-25T10:51:16;6.90;;;2.10;;
2748;SDS011;1382;52.142;11.618;2023-04-25T10:53:56;5.60;;;2.80;;
2748;SDS011;1382;52.142;11.618;2023-04-25T10:56:26;9.03;;;2.70;;
2748;SDS011;1382;52.142;11.618;2023-04-25T10:59:04;11.90;;;2.90;;
2748;SDS011;1382;52.142;11.618;2023-04-25T11:01:35;6.97;;;3.20;;
2748;SDS011;1382;52.142;11.618;2023-04-25T11:04:03;9.17;;;2.97;;
2748;SDS011;1382;52.142;11.618;2023-04-25T11:06:33;5.80;;;2.97;;
2748;SDS011;1382;52.142;11.618;2023-04-25T11:09:10;10.70;;;2.57;;
2748;SDS011;1382;52.142;11.618;2023-04-25T11:11:39;13.00;;;3.20;;
2748;SDS011;1382;52.142;11.618;2023-04-25T11:14:05;14.17;;;3.53;;
2748;SDS011;1382;52.142;11.618;2023-04-25T11:16:32;5.93;;;2.83;;
2748;SDS011;1382;52.142;11.618;2023-04-25T11:18:59;7.40;;;2.77;;
2748;SDS011;1382;52.142;11.618;2023-04-25T11:21:26;7.87;;;1.97;;
2748;SDS011;1382;52.142;11.618;2023-04-25T11:23:52;5.07;;;2.10;;
2748;SDS011;1382;52.142;11.618;2023-04-25T11:26:19;6.67;;;2.43;;
2748;SDS011;1382;52.142;11.618;2023-04-25T11:28:48;6.20;;;2.20;;
2748;SDS011;1382;52.142;11.618;2023-04-25T11:31:15;8.37;;;3.23;;
2748;SDS011;1382;52.142;11.618;2023-04-25T11:33:42;6.77;;;2.07;;
2748;SDS011;1382;52.142;11.618;2023-04-25T11:36:08;5.93;;;2.70;;
2748;SDS011;1382;52.142;11.618;2023-04-25T11:38:36;7.53;;;2.50;;
2748;SDS011;1382;52.142;11.618;2023-04-25T11:41:02;5.80;;;2.27;;
2748;SDS011;1382;52.142;11.618;2023-04-25T11:43:29;4.17;;;1.80;;
2748;SDS011;1382;52.142;11.618;2023-04-25T11:45:57;10.63;;;3.23;;
2748;SDS011;1382;52.142;11.618;2023-04-25T11:48:24;5.43;;;2.23;;
2748;SDS011;1382;52.142;11.618;2023-04-25T11:50:51;11.00;;;2.80;;
2748;SDS011;1382;52.142;11.618;2023-04-25T11:53:20;4.40;;;2.57;;
2748;SDS011;1382;52.142;11.618;2023-04-25T11:55:46;5.27;;;2.23;;
2748;SDS011;1382;52.142;11.618;2023-04-25T11:58:13;7.07;;;3.00;;
2748;SDS011;1382;52.142;11.618;2023-04-25T12:00:41;5.13;;;2.13;;
2748;SDS011;1382;52.142;11.618;2023-04-25T12:03:17;6.70;;;2.60;;
2748;SDS011;1382;52.142;11.618;2023-04-25T12:05:45;11.13;;;2.70;;
2748;SDS011;1382;52.142;11.618;2023-04-25T12:08:13;7.17;;;2.33;;
2748;SDS011;1382;52.142;11.618;2023-04-25T12:10:40;7.03;;;2.80;;
2748;SDS011;1382;52.142;11.618;2023-04-25T12:13:17;5.80;;;2.80;;
2748;SDS011;1382;52.142;11.618;2023-04-25T12:15:46;9.50;;;2.70;;
2748;SDS011;1382;52.142;11.618;2023-04-25T12:18:13;4.63;;;2.83;;
2748;SDS011;1382;52.142;11.618;2023-04-25T12:20:41;8.00;;;2.63;;
2748;SDS011;1382;52.142;11.618;2023-04-25T12:23:08;4.57;;;1.93;;
2748;SDS011;1382;52.142;11.618;2023-04-25T12:25:35;6.73;;;2.13;;
2748;SDS011;1382;52.142;11.618;2023-04-25T12:28:09;4.90;;;3.03;;
2748;SDS011;1382;52.142;11.618;2023-04-25T12:30:56;4.10;;;2.33;;
2748;SDS011;1382;52.142;11.618;2023-04-25T12:33:24;4.93;;;2.23;;
2748;SDS011;1382;52.142;11.618;2023-04-25T12:35:53;4.87;;;1.80;;
2748;SDS011;1382;52.142;11.618;2023-04-25T12:38:21;4.30;;;2.10;;
2748;SDS011;1382;52.142;11.618;2023-04-25T12:40:48;7.40;;;2.90;;
2748;SDS011;1382;52.142;11.618;2023-04-25T12:43:15;5.33;;;1.87;;
2748;SDS011;1382;52.142;11.618;2023-04-25T12:45:41;9.80;;;2.60;;
2748;SDS011;1382;52.142;11.618;2023-04-25T12:48:08;5.77;;;2.50;;
2748;SDS011;1382;52.142;11.618;2023-04-25T12:50:35;6.00;;;2.17;;
2748;SDS011;1382;52.142;11.618;2023-04-25T12:53:03;8.87;;;2.80;;
2748;SDS011;1382;52.142;11.618;2023-04-25T12:55:30;3.77;;;1.80;;
2748;SDS011;1382;52.142;11.618;2023-04-25T12:57:56;7.03;;;1.30;;
2748;SDS011;1382;52.142;11.618;2023-04-25T13:00:23;6.83;;;2.27;;
2748;SDS011;1382;52.142;11.618;2023-04-25T13:02:50;4.17;;;2.30;;
2748;SDS011;1382;52.142;11.618;2023-04-25T13:05:17;6.63;;;2.33;;
2748;SDS011;1382;52.142;11.618;2023-04-25T13:07:44;6.10;;;2.20;;
2748;SDS011;1382;52.142;11.618;2023-04-25T13:10:12;6.63;;;1.83;;
2748;SDS011;1382;52.142;11.618;2023-04-25T13:12:38;8.13;;;2.10;;
2748;SDS011;1382;52.142;11.618;2023-04-25T13:15:06;10.03;;;2.03;;
2748;SDS011;1382;52.142;11.618;2023-04-25T13:17:33;5.03;;;2.30;;
2748;SDS011;1382;52.142;11.618;2023-04-25T13:20:00;4.70;;;2.73;;
2748;SDS011;1382;52.142;11.618;2023-04-25T13:22:27;5.87;;;1.77;;
2748;SDS011;1382;52.142;11.618;2023-04-25T13:24:53;7.83;;;2.50;;
2748;SDS011;1382;52.142;11.618;2023-04-25T13:27:21;4.77;;;1.80;;
2748;SDS011;1382;52.142;11.618;2023-04-25T13:29:48;7.00;;;2.40;;
2748;SDS011;1382;52.142;11.618;2023-04-25T13:32:15;4.67;;;1.40;;
2748;SDS011;1382;52.142;11.618;2023-04-25T13:34:42;3.50;;;1.63;;
2748;SDS011;1382;52.142;11.618;2023-04-25T13:37:08;4.83;;;1.90;;
2748;SDS011;1382;52.142;11.618;2023-04-25T13:39:35;4.73;;;1.80;;
2748;SDS011;1382;52.142;11.618;2023-04-25T13:42:02;6.90;;;1.90;;
2748;SDS011;1382;52.142;11.618;2023-04-25T13:44:30;4.60;;;1.83;;
2748;SDS011;1382;52.142;11.618;2023-04-25T13:46:56;3.03;;;1.50;;
2748;SDS011;1382;52.142;11.618;2023-04-25T13:49:23;4.90;;;2.17;;
2748;SDS011;1382;52.142;11.618;2023-04-25T13:51:50;8.57;;;2.20;;
2748;SDS011;1382;52.142;11.618;2023-04-25T13:54:17;3.23;;;1.30;;
2748;SDS011;1382;52.142;11.618;2023-04-25T13:56:43;3.33;;;1.87;;
2748;SDS011;1382;52.142;11.618;2023-04-25T13:59:10;9.73;;;1.70;;
2748;SDS011;1382;52.142;11.618;2023-04-25T14:01:38;5.90;;;2.33;;
2748;SDS011;1382;52.142;11.618;2023-04-25T14:04:05;6.00;;;1.60;;
2748;SDS011;1382;52.142;11.618;2023-04-25T14:06:32;3.50;;;1.63;;
2748;SDS011;1382;52.142;11.618;2023-04-25T14:09:00;8.17;;;2.10;;
2748;SDS011;1382;52.142;11.618;2023-04-25T14:11:26;3.83;;;1.70;;
2748;SDS011;1382;52.142;11.618;2023-04-25T14:13:53;3.73;;;1.40;;
2748;SDS011;1382;52.142;11.618;2023-04-25T14:16:20;4.83;;;1.70;;
2748;SDS011;1382;52.142;11.618;2023-04-25T14:18:48;12.30;;;2.47;;
2748;SDS011;1382;52.142;11.618;2023-04-25T14:21:15;7.83;;;1.60;;
2748;SDS011;1382;52.142;11.618;2023-04-25T14:23:41;3.23;;;1.40;;
2748;SDS011;1382;52.142;11.618;2023-04-25T14:26:08;5.10;;;1.63;;
2748;SDS011;1382;52.142;11.618;2023-04-25T14:28:35;7.03;;;1.90;;
2748;SDS011;1382;52.142;11.618;2023-04-25T14:31:02;3.60;;;1.63;;
2748;SDS011;1382;52.142;11.618;2023-04-25T14:33:28;4.30;;;2.23;;
2748;SDS011;1382;52.142;11.618;2023-04-25T14:35:56;4.20;;;1.57;;
2748;SDS011;1382;52.142;11.618;2023-04-25T14:38:23;4.60;;;2.10;;
2748;SDS011;1382;52.142;11.618;2023-04-25T14:40:50;5.60;;;1.50;;
2748;SDS011;1382;52.142;11.618;2023-04-25T14:43:17;4.60;;;1.73;;
2748;SDS011;1382;52.142;11.618;2023-04-25T14:45:43;3.40;;;1.80;;
2748;SDS011;1382;52.142;11.618;2023-04-25T14:48:10;4.67;;;1.37;;
2748;SDS011;1382;52.142;11.618;2023-04-25T14:50:37;3.50;;;1.60;;
2748;SDS011;1382;52.142;11.618;2023-04-25T14:53:05;4.80;;;1.60;;
2748;SDS011;1382;52.142;11.618;2023-04-25T14:55:32;2.73;;;1.43;;
2748;SDS011;1382;52.142;11.618;2023-04-25T14:57:59;2.50;;;1.07;;